Time;durP1;ratioP1;P1;durP2;ratioP2;P2;SDS_P1;SDS_P2;PMS_P1;PMS_P2;Temp;Humidity;BMP_temperature;BMP_pressure;BME280_temperature;BME280_humidity;BME280_pressure;Samples;Min_cycle;Max_cycle;Signal;HPM_P1;HPM_P2
2022/12/06 00:01:24;;;;;;;46.70;34.80;;;;;;;;;;5051615;28;20183;-75
2022/12/06 00:03:51;;;;;;;49.77;34.33;;;;;;;;;;5065129;28;20190;-75
2022/12/06 00:06:19;;;;;;;46.90;35.03;;;;;;;;;;5054690;28;20189;-75
2022/12/06 00:08:46;;;;;;;52.33;37.33;;;;;;;;;;5058343;28;20638;-75
2022/12/06 00:11:15;;;;;;;53.50;36.30;;;;;;;;;;5054019;28;20228;-75
2022/12/06 00:13:41;;;;;;;51.43;36.63;;;;;;;;;;5051456;28;20231;-75
2022/12/06 00:16:09;;;;;;;53.43;38.07;;;;;;;;;;5062554;28;20180;-75
2022/12/06 00:18:36;;;;;;;53.57;37.53;;;;;;;;;;5069321;28;20181;-75
2022/12/06 00:21:08;;;;;;;52.17;36.80;;;;;;;;;;5063394;28;20695;-75
2022/12/06 00:23:36;;;;;;;53.43;37.97;;;;;;;;;;5066548;28;20193;-75
2022/12/06 00:26:02;;;;;;;49.10;35.50;;;;;;;;;;5066651;28;20630;-75
2022/12/06 00:28:28;;;;;;;49.73;35.77;;;;;;;;;;5055520;28;20178;-75
2022/12/06 00:31:01;;;;;;;52.47;36.30;;;;;;;;;;5053992;28;20209;-75
2022/12/06 00:33:27;;;;;;;52.63;36.87;;;;;;;;;;5054953;28;20221;-75
2022/12/06 00:35:57;;;;;;;53.57;37.77;;;;;;;;;;5052134;28;20213;-75
2022/12/06 00:38:23;;;;;;;53.00;37.60;;;;;;;;;;5054417;28;20177;-74
2022/12/06 00:40:49;;;;;;;47.77;35.10;;;;;;;;;;5069780;28;20186;-75
2022/12/06 00:43:15;;;;;;;48.97;36.60;;;;;;;;;;5052584;28;20212;-75
2022/12/06 00:51:49;;;;;;;54.00;37.43;;;;;;;;;;5059192;28;20200;-75
2022/12/06 00:54:15;;;;;;;55.43;37.60;;;;;;;;;;5064284;28;20188;-75
2022/12/06 00:56:41;;;;;;;54.17;37.93;;;;;;;;;;5067615;28;20229;-74
2022/12/06 00:59:07;;;;;;;51.57;36.33;;;;;;;;;;5069887;28;20239;-74
2022/12/06 01:01:34;;;;;;;53.93;37.70;;;;;;;;;;5051656;28;20174;-75
2022/12/06 01:04:03;;;;;;;54.37;38.67;;;;;;;;;;5058623;28;20185;-74
2022/12/06 01:06:30;;;;;;;52.10;38.33;;;;;;;;;;5055848;28;20174;-75
2022/12/06 01:08:57;;;;;;;53.90;39.63;;;;;;;;;;5057619;28;20294;-76
2022/12/06 01:11:24;;;;;;;52.37;38.87;;;;;;;;;;5067878;28;20692;-75
2022/12/06 01:13:50;;;;;;;50.33;37.50;;;;;;;;;;5050401;28;20173;-75
2022/12/06 01:16:18;;;;;;;55.93;38.50;;;;;;;;;;5057665;28;20267;-75
2022/12/06 01:18:45;;;;;;;57.97;38.33;;;;;;;;;;5058194;28;20230;-74
2022/12/06 01:21:15;;;;;;;52.63;38.57;;;;;;;;;;5065639;28;20186;-75
2022/12/06 01:23:42;;;;;;;55.13;38.13;;;;;;;;;;5057128;28;20300;-75
2022/12/06 01:26:15;;;;;;;55.00;40.37;;;;;;;;;;5068445;28;20177;-75
2022/12/06 01:28:41;;;;;;;57.93;39.70;;;;;;;;;;5066963;28;20177;-75
2022/12/06 01:31:07;;;;;;;57.10;39.23;;;;;;;;;;5064422;28;20872;-75
2022/12/06 01:33:33;;;;;;;64.07;39.93;;;;;;;;;;5058553;28;20865;-75
2022/12/06 01:35:59;;;;;;;56.60;40.73;;;;;;;;;;5055593;28;20208;-75
2022/12/06 01:38:25;;;;;;;59.63;38.10;;;;;;;;;;5052544;28;20639;-75
2022/12/06 01:40:51;;;;;;;52.47;37.87;;;;;;;;;;5069979;28;20227;-74
2022/12/06 01:43:35;;;;;;;54.57;38.90;;;;;;;;;;5066126;28;20178;-75
2022/12/06 01:46:19;;;;;;;60.23;39.67;;;;;;;;;;5064589;28;20197;-75
2022/12/06 01:48:47;;;;;;;52.77;37.20;;;;;;;;;;5058324;28;20197;-74
2022/12/06 01:51:13;;;;;;;56.23;39.07;;;;;;;;;;5063198;28;20702;-76
2022/12/06 01:53:41;;;;;;;54.33;37.53;;;;;;;;;;5071211;28;20238;-75
2022/12/06 01:56:07;;;;;;;51.67;36.33;;;;;;;;;;5071181;28;20284;-75
2022/12/06 01:58:36;;;;;;;49.33;36.07;;;;;;;;;;5058505;28;20178;-75
2022/12/06 02:01:02;;;;;;;49.10;35.93;;;;;;;;;;5063491;28;20228;-75
2022/12/06 02:03:30;;;;;;;58.57;37.97;;;;;;;;;;5061094;28;20208;-74
2022/12/06 02:05:56;;;;;;;50.93;37.77;;;;;;;;;;5061469;28;20673;-74
2022/12/06 02:08:23;;;;;;;50.07;36.47;;;;;;;;;;5054857;28;20208;-75
2022/12/06 02:10:49;;;;;;;50.50;35.27;;;;;;;;;;5057763;28;20209;-75
2022/12/06 02:13:15;;;;;;;49.17;36.10;;;;;;;;;;5077842;28;20181;-74
2022/12/06 02:15:46;;;;;;;52.10;36.03;;;;;;;;;;5074335;28;20189;-75
2022/12/06 02:18:33;;;;;;;52.80;36.50;;;;;;;;;;5067632;28;20190;-75
2022/12/06 02:21:13;;;;;;;52.73;37.33;;;;;;;;;;5078042;28;20668;-75
2022/12/06 02:23:39;;;;;;;49.13;35.90;;;;;;;;;;5068758;28;20284;-74
2022/12/06 02:26:11;;;;;;;50.67;36.07;;;;;;;;;;5060542;28;20259;-74
2022/12/06 02:28:48;;;;;;;52.57;36.23;;;;;;;;;;5059194;28;20170;-74
2022/12/06 02:31:17;;;;;;;54.37;37.07;;;;;;;;;;5063289;28;20209;-75
2022/12/06 02:33:49;;;;;;;56.93;37.63;;;;;;;;;;5059986;28;20287;-75
2022/12/06 02:36:35;;;;;;;48.90;36.83;;;;;;;;;;5062851;28;20189;-75
2022/12/06 02:39:19;;;;;;;54.80;37.57;;;;;;;;;;5068857;28;20185;-74
2022/12/06 02:41:50;;;;;;;48.97;36.40;;;;;;;;;;5055793;28;20186;-75
2022/12/06 02:44:20;;;;;;;58.40;37.43;;;;;;;;;;5053877;28;20177;-75
2022/12/06 02:46:47;;;;;;;56.77;38.63;;;;;;;;;;5073480;28;20530;-74
2022/12/06 02:49:14;;;;;;;52.40;36.60;;;;;;;;;;5071741;28;20648;-75
2022/12/06 02:51:40;;;;;;;52.73;38.03;;;;;;;;;;5071214;28;20220;-74
2022/12/06 02:54:08;;;;;;;53.47;36.90;;;;;;;;;;5063246;28;20542;-75
2022/12/06 02:56:35;;;;;;;53.73;37.03;;;;;;;;;;5056885;28;20873;-74
2022/12/06 02:59:01;;;;;;;54.10;36.17;;;;;;;;;;5069557;28;20176;-75
2022/12/06 03:01:29;;;;;;;53.90;37.47;;;;;;;;;;5054843;28;20177;-75
2022/12/06 03:04:01;;;;;;;53.67;37.47;;;;;;;;;;5058225;28;20224;-75
2022/12/06 03:06:45;;;;;;;50.63;36.00;;;;;;;;;;5057915;28;20182;-75
2022/12/06 03:09:24;;;;;;;52.20;37.03;;;;;;;;;;5060758;28;20185;-75
2022/12/06 03:12:06;;;;;;;47.83;35.17;;;;;;;;;;5069115;28;20354;-75
2022/12/06 03:14:35;;;;;;;51.37;34.50;;;;;;;;;;5054595;28;20192;-75
2022/12/06 03:17:21;;;;;;;51.20;37.13;;;;;;;;;;5068153;28;20539;-75
2022/12/06 03:19:50;;;;;;;52.03;33.83;;;;;;;;;;5067377;28;20238;-75
2022/12/06 03:22:43;;;;;;;50.30;35.17;;;;;;;;;;5055593;28;20238;-76
2022/12/06 03:25:09;;;;;;;50.20;36.07;;;;;;;;;;5054013;28;20213;-75
2022/12/06 03:27:36;;;;;;;49.93;35.73;;;;;;;;;;5055220;28;20308;-75
2022/12/06 03:30:05;;;;;;;51.93;36.23;;;;;;;;;;5055366;28;20693;-75
2022/12/06 03:32:33;;;;;;;50.10;34.90;;;;;;;;;;5068805;28;20181;-75
2022/12/06 03:35:01;;;;;;;48.80;34.80;;;;;;;;;;5051910;28;20268;-75
2022/12/06 03:37:30;;;;;;;55.00;36.10;;;;;;;;;;5067991;28;20177;-74
2022/12/06 03:39:56;;;;;;;48.50;35.50;;;;;;;;;;5071800;28;20192;-75
2022/12/06 03:42:21;;;;;;;50.63;35.57;;;;;;;;;;5063670;28;20190;-75
2022/12/06 03:44:48;;;;;;;51.33;35.23;;;;;;;;;;5054493;28;20251;-75
2022/12/06 03:47:15;;;;;;;54.50;37.10;;;;;;;;;;5070125;28;20185;-75
2022/12/06 03:49:44;;;;;;;49.03;35.00;;;;;;;;;;5052300;28;20182;-75
2022/12/06 03:52:10;;;;;;;51.10;35.30;;;;;;;;;;5064161;28;20185;-75
2022/12/06 03:54:38;;;;;;;56.87;37.10;;;;;;;;;;5064421;28;20186;-75
2022/12/06 03:57:04;;;;;;;54.33;36.37;;;;;;;;;;5070987;28;20181;-75
2022/12/06 03:59:30;;;;;;;51.70;36.60;;;;;;;;;;5052583;28;20546;-75
2022/12/06 04:01:56;;;;;;;53.27;36.43;;;;;;;;;;5066737;28;20673;-75
2022/12/06 04:04:23;;;;;;;55.73;36.00;;;;;;;;;;5060373;28;20273;-74
2022/12/06 04:06:49;;;;;;;49.63;35.77;;;;;;;;;;5058166;28;20182;-75
2022/12/06 04:12:00;;;;;;;50.70;34.97;;;;;;;;;;5053951;28;20659;-75
2022/12/06 04:14:31;;;;;;;50.37;34.30;;;;;;;;;;5051633;28;20638;-75
2022/12/06 04:19:44;;;;;;;53.77;36.00;;;;;;;;;;5070342;28;20191;-75
2022/12/06 04:24:54;;;;;;;50.13;35.47;;;;;;;;;;5054912;28;20309;-75
2022/12/06 04:41:04;;;;;;;59.47;38.90;;;;;;;;;;5070850;28;20179;-75
2022/12/06 04:43:42;;;;;;;58.63;37.90;;;;;;;;;;5058493;28;20261;-74
2022/12/06 04:46:11;;;;;;;99.30;61.80;;;;;;;;;;5065431;28;20543;-75
2022/12/06 04:48:38;;;;;;;79.93;50.53;;;;;;;;;;5069429;28;20226;-75
2022/12/06 04:51:04;;;;;;;77.97;48.47;;;;;;;;;;5065656;28;20205;-75
2022/12/06 04:53:30;;;;;;;65.60;41.73;;;;;;;;;;5063953;28;20185;-75
2022/12/06 04:55:56;;;;;;;56.37;37.03;;;;;;;;;;5066533;28;20192;-75
2022/12/06 04:58:22;;;;;;;59.47;35.60;;;;;;;;;;5054129;28;20666;-75
2022/12/06 05:00:53;;;;;;;62.50;37.63;;;;;;;;;;5059286;28;20188;-75
2022/12/06 05:03:20;;;;;;;58.07;36.37;;;;;;;;;;5067664;28;20202;-75
2022/12/06 05:05:46;;;;;;;56.57;35.27;;;;;;;;;;5068969;28;20255;-74
2022/12/06 05:08:12;;;;;;;59.40;37.17;;;;;;;;;;5053672;28;20209;-75
2022/12/06 05:10:38;;;;;;;62.10;37.90;;;;;;;;;;5052637;28;20267;-75
2022/12/06 05:13:05;;;;;;;63.00;37.57;;;;;;;;;;5060715;28;20185;-75
2022/12/06 05:15:32;;;;;;;55.40;34.93;;;;;;;;;;5067937;28;20588;-75
2022/12/06 05:17:58;;;;;;;59.37;36.80;;;;;;;;;;5069214;28;20189;-75
2022/12/06 05:20:24;;;;;;;64.17;37.17;;;;;;;;;;5057222;28;20178;-75
2022/12/06 05:22:50;;;;;;;58.67;37.30;;;;;;;;;;5055337;28;20654;-75
2022/12/06 05:25:16;;;;;;;57.87;37.37;;;;;;;;;;5070459;28;20618;-76
2022/12/06 05:27:43;;;;;;;60.50;38.13;;;;;;;;;;5072802;28;20685;-74
2022/12/06 05:30:09;;;;;;;60.03;36.63;;;;;;;;;;5072210;28;20248;-75
2022/12/06 05:32:37;;;;;;;58.57;35.73;;;;;;;;;;5071425;28;20197;-75
2022/12/06 05:35:03;;;;;;;58.40;36.80;;;;;;;;;;5068583;28;20178;-74
2022/12/06 05:37:29;;;;;;;52.80;33.33;;;;;;;;;;5057448;28;20263;-75
2022/12/06 05:39:55;;;;;;;57.73;35.90;;;;;;;;;;5060187;28;20190;-75
2022/12/06 05:42:21;;;;;;;57.40;35.03;;;;;;;;;;5060323;28;20517;-75
2022/12/06 05:44:47;;;;;;;60.77;35.33;;;;;;;;;;5070127;28;20185;-75
2022/12/06 05:47:13;;;;;;;46.93;32.43;;;;;;;;;;5069527;28;20181;-75
2022/12/06 05:49:39;;;;;;;50.17;31.67;;;;;;;;;;5060122;28;20206;-75
2022/12/06 05:52:06;;;;;;;47.33;31.17;;;;;;;;;;5068334;28;20181;-75
2022/12/06 05:54:32;;;;;;;47.33;30.87;;;;;;;;;;5069048;28;20211;-75
2022/12/06 05:56:58;;;;;;;50.97;32.73;;;;;;;;;;5073057;28;20169;-74
2022/12/06 05:59:24;;;;;;;53.23;33.10;;;;;;;;;;5067932;28;20178;-75
2022/12/06 06:01:50;;;;;;;51.00;32.03;;;;;;;;;;5059780;28;20189;-74
2022/12/06 06:04:16;;;;;;;51.10;33.30;;;;;;;;;;5061976;28;20204;-74
2022/12/06 06:06:42;;;;;;;51.53;34.23;;;;;;;;;;5070856;28;20645;-76
2022/12/06 06:09:08;;;;;;;56.10;34.77;;;;;;;;;;5071350;28;20207;-75
2022/12/06 06:11:34;;;;;;;58.70;36.77;;;;;;;;;;5056026;28;20217;-75
2022/12/06 06:14:00;;;;;;;69.60;43.63;;;;;;;;;;5055543;28;20531;-76
2022/12/06 06:16:26;;;;;;;54.07;35.47;;;;;;;;;;5055849;28;20217;-75
2022/12/06 06:18:53;;;;;;;55.40;35.53;;;;;;;;;;5060474;28;20194;-75
2022/12/06 06:21:19;;;;;;;53.00;34.43;;;;;;;;;;5065740;28;20182;-75
2022/12/06 06:23:45;;;;;;;53.13;34.07;;;;;;;;;;5064824;28;20182;-75
2022/12/06 06:26:11;;;;;;;47.00;32.60;;;;;;;;;;5068970;28;20173;-75
2022/12/06 06:28:37;;;;;;;44.53;30.93;;;;;;;;;;5067581;28;20204;-75
2022/12/06 06:31:04;;;;;;;45.97;31.87;;;;;;;;;;5059803;28;20701;-75
2022/12/06 06:33:31;;;;;;;47.33;31.47;;;;;;;;;;5054230;28;20236;-75
2022/12/06 06:35:57;;;;;;;50.73;32.80;;;;;;;;;;5053959;28;20193;-74
2022/12/06 06:38:23;;;;;;;48.97;32.13;;;;;;;;;;5056200;28;20705;-75
2022/12/06 06:40:49;;;;;;;39.63;29.13;;;;;;;;;;5057294;28;20174;-75
2022/12/06 06:43:18;;;;;;;44.63;28.93;;;;;;;;;;5059000;28;20587;-74
2022/12/06 06:46:05;;;;;;;45.07;29.67;;;;;;;;;;5063348;28;20633;-74
2022/12/06 06:48:33;;;;;;;36.87;27.30;;;;;;;;;;5065663;28;20299;-76
2022/12/06 06:51:07;;;;;;;42.53;29.33;;;;;;;;;;5055730;28;20215;-75
2022/12/06 06:53:33;;;;;;;39.27;27.03;;;;;;;;;;5067525;28;20258;-75
2022/12/06 06:55:59;;;;;;;50.27;31.90;;;;;;;;;;5068771;28;20227;-74
2022/12/06 06:58:25;;;;;;;44.10;30.83;;;;;;;;;;5068097;28;20719;-75
2022/12/06 07:00:52;;;;;;;43.73;28.30;;;;;;;;;;5071337;28;20196;-75
2022/12/06 07:03:19;;;;;;;40.30;27.30;;;;;;;;;;5067905;28;20634;-75
2022/12/06 07:05:50;;;;;;;42.03;28.23;;;;;;;;;;5069358;28;20230;-75
2022/12/06 07:08:16;;;;;;;41.50;27.43;;;;;;;;;;5068232;28;20254;-75
2022/12/06 07:10:47;;;;;;;41.07;27.47;;;;;;;;;;5070406;28;20262;-74
2022/12/06 07:13:13;;;;;;;39.43;26.47;;;;;;;;;;5060120;28;20217;-74
2022/12/06 07:15:39;;;;;;;38.37;26.57;;;;;;;;;;5064103;28;20195;-75
2022/12/06 07:18:05;;;;;;;42.97;28.53;;;;;;;;;;5069097;28;20269;-75
2022/12/06 07:20:31;;;;;;;43.80;29.27;;;;;;;;;;5068056;28;20188;-75
2022/12/06 07:22:57;;;;;;;37.93;26.87;;;;;;;;;;5058726;28;20174;-74
2022/12/06 07:25:23;;;;;;;38.60;27.20;;;;;;;;;;5059367;28;20539;-76
2022/12/06 07:27:49;;;;;;;36.70;25.87;;;;;;;;;;5061046;28;20186;-76
2022/12/06 07:30:15;;;;;;;42.77;28.67;;;;;;;;;;5058351;28;20212;-75
2022/12/06 07:32:41;;;;;;;35.87;25.57;;;;;;;;;;5058540;28;20201;-75
2022/12/06 07:35:08;;;;;;;31.83;23.57;;;;;;;;;;5066643;28;20205;-76
2022/12/06 07:37:34;;;;;;;34.63;24.33;;;;;;;;;;5054649;28;20281;-75
2022/12/06 07:40:00;;;;;;;42.90;29.53;;;;;;;;;;5058065;28;20182;-75
2022/12/06 07:45:11;;;;;;;55.60;35.23;;;;;;;;;;5057286;28;20876;-75
2022/12/06 07:47:39;;;;;;;53.30;34.77;;;;;;;;;;5070193;28;20169;-75
2022/12/06 07:50:06;;;;;;;36.60;27.07;;;;;;;;;;5058918;28;20256;-75
2022/12/06 07:52:33;;;;;;;48.90;27.37;;;;;;;;;;5065704;28;20188;-75
2022/12/06 07:54:59;;;;;;;38.17;26.17;;;;;;;;;;5063872;28;20728;-75
2022/12/06 07:57:25;;;;;;;35.70;25.03;;;;;;;;;;5059604;28;20196;-76
2022/12/06 07:59:51;;;;;;;36.87;26.80;;;;;;;;;;5063953;28;20184;-74
2022/12/06 08:02:18;;;;;;;41.10;28.53;;;;;;;;;;5056392;28;20252;-75
2022/12/06 08:04:44;;;;;;;35.97;26.30;;;;;;;;;;5058818;28;20269;-74
2022/12/06 08:07:10;;;;;;;36.30;26.93;;;;;;;;;;5062992;28;20597;-75
2022/12/06 08:09:36;;;;;;;39.70;27.13;;;;;;;;;;5067135;28;20272;-75
2022/12/06 08:12:02;;;;;;;37.50;27.47;;;;;;;;;;5068520;28;20316;-76
2022/12/06 08:14:28;;;;;;;39.03;28.73;;;;;;;;;;5051069;28;20231;-76
2022/12/06 08:16:54;;;;;;;38.23;27.77;;;;;;;;;;5059663;28;20255;-75
2022/12/06 08:19:20;;;;;;;43.10;28.93;;;;;;;;;;5061672;28;20615;-75
2022/12/06 08:21:47;;;;;;;42.43;29.70;;;;;;;;;;5054472;28;20213;-75
2022/12/06 08:24:13;;;;;;;40.13;28.23;;;;;;;;;;5083471;28;20178;-74
2022/12/06 08:26:39;;;;;;;38.47;28.53;;;;;;;;;;5066119;28;20632;-76
2022/12/06 08:29:05;;;;;;;43.47;30.87;;;;;;;;;;5052700;28;20193;-75
2022/12/06 08:31:35;;;;;;;43.27;31.67;;;;;;;;;;5064559;28;20205;-75
2022/12/06 08:34:01;;;;;;;44.13;31.63;;;;;;;;;;5068968;28;20220;-74
2022/12/06 08:36:27;;;;;;;46.63;31.53;;;;;;;;;;5069381;28;20247;-75
2022/12/06 08:38:54;;;;;;;50.87;31.80;;;;;;;;;;5065323;28;20184;-75
2022/12/06 08:44:07;;;;;;;51.37;34.20;;;;;;;;;;5057454;28;20220;-75
2022/12/06 08:46:33;;;;;;;57.67;36.40;;;;;;;;;;5066090;28;20869;-74
2022/12/06 08:49:00;;;;;;;52.93;35.43;;;;;;;;;;5068458;28;20673;-74
2022/12/06 08:51:26;;;;;;;49.07;34.60;;;;;;;;;;5066340;28;20209;-74
2022/12/06 08:53:54;;;;;;;53.00;36.13;;;;;;;;;;5069343;28;20232;-76
2022/12/06 08:56:20;;;;;;;48.30;33.90;;;;;;;;;;5050115;28;20170;-74
2022/12/06 08:58:46;;;;;;;52.27;35.33;;;;;;;;;;5064426;28;20189;-75
2022/12/06 09:01:13;;;;;;;53.30;35.90;;;;;;;;;;5055406;28;20294;-75
2022/12/06 09:03:39;;;;;;;60.70;37.27;;;;;;;;;;5056521;28;20638;-74
2022/12/06 09:06:05;;;;;;;59.90;36.43;;;;;;;;;;5052879;28;20556;-74
2022/12/06 09:08:31;;;;;;;60.33;37.73;;;;;;;;;;5066368;28;20236;-74
2022/12/06 09:10:57;;;;;;;53.60;35.40;;;;;;;;;;5054640;28;20236;-74
2022/12/06 09:13:23;;;;;;;61.07;36.23;;;;;;;;;;5060144;28;20272;-75
2022/12/06 09:15:49;;;;;;;56.17;35.10;;;;;;;;;;5065363;28;20189;-74
2022/12/06 09:18:15;;;;;;;54.27;33.97;;;;;;;;;;5053863;28;20189;-75
2022/12/06 09:20:41;;;;;;;55.63;35.60;;;;;;;;;;5066847;28;20205;-74
2022/12/06 09:23:07;;;;;;;52.17;35.53;;;;;;;;;;5066272;28;20189;-74
2022/12/06 09:25:33;;;;;;;64.90;38.73;;;;;;;;;;5062295;28;20186;-75
2022/12/06 09:27:59;;;;;;;57.50;35.43;;;;;;;;;;5057066;28;20227;-74
2022/12/06 09:30:26;;;;;;;60.47;36.60;;;;;;;;;;5065454;28;20255;-75
2022/12/06 09:32:52;;;;;;;50.33;34.27;;;;;;;;;;5051413;28;20259;-74
2022/12/06 09:35:18;;;;;;;59.30;35.83;;;;;;;;;;5065758;28;20188;-74
2022/12/06 09:37:44;;;;;;;60.23;36.57;;;;;;;;;;5059538;28;20186;-74
2022/12/06 09:40:21;;;;;;;64.90;39.00;;;;;;;;;;5062504;28;20185;-74
2022/12/06 09:42:50;;;;;;;57.77;35.73;;;;;;;;;;5066908;28;20185;-74
2022/12/06 09:45:25;;;;;;;56.03;35.73;;;;;;;;;;5067336;28;20268;-74
2022/12/06 09:47:57;;;;;;;56.07;35.53;;;;;;;;;;5065408;28;20601;-74
2022/12/06 09:50:49;;;;;;;58.93;36.57;;;;;;;;;;5065698;28;20572;-75
2022/12/06 09:53:42;;;;;;;60.93;36.67;;;;;;;;;;5067873;28;20173;-74
2022/12/06 09:56:17;;;;;;;63.20;37.80;;;;;;;;;;5056614;28;20281;-74
2022/12/06 09:58:43;;;;;;;64.93;38.60;;;;;;;;;;5055679;28;20205;-75
2022/12/06 10:01:28;;;;;;;59.03;38.67;;;;;;;;;;5054076;28;20261;-75
2022/12/06 10:04:13;;;;;;;66.50;39.30;;;;;;;;;;5057334;28;20206;-76
2022/12/06 10:07:02;;;;;;;72.83;40.27;;;;;;;;;;5056312;28;20215;-76
2022/12/06 10:09:35;;;;;;;67.47;38.07;;;;;;;;;;5058350;28;20221;-75
2022/12/06 10:12:13;;;;;;;73.57;40.63;;;;;;;;;;5073777;28;20607;-75
2022/12/06 10:14:45;;;;;;;76.03;42.77;;;;;;;;;;5070844;28;20169;-75
2022/12/06 10:17:14;;;;;;;77.70;44.73;;;;;;;;;;5061004;28;20174;-75
2022/12/06 10:19:59;;;;;;;74.90;43.63;;;;;;;;;;5065874;28;20280;-75
2022/12/06 10:22:44;;;;;;;69.13;41.73;;;;;;;;;;5059536;28;20185;-74
2022/12/06 10:25:13;;;;;;;72.77;42.07;;;;;;;;;;5064995;28;20173;-74
2022/12/06 10:27:42;;;;;;;74.87;44.23;;;;;;;;;;5071673;28;20185;-76
2022/12/06 10:30:10;;;;;;;77.10;43.53;;;;;;;;;;5059550;28;20220;-75
2022/12/06 10:32:52;;;;;;;67.93;40.63;;;;;;;;;;5068950;28;20257;-75
2022/12/06 10:35:23;;;;;;;66.93;39.63;;;;;;;;;;5072245;28;20181;-74
2022/12/06 10:37:49;;;;;;;75.70;42.37;;;;;;;;;;5071628;28;20187;-75
2022/12/06 10:40:15;;;;;;;68.63;40.83;;;;;;;;;;5071260;28;20546;-74
2022/12/06 10:42:44;;;;;;;59.60;38.43;;;;;;;;;;5067928;28;20204;-75
2022/12/06 10:48:02;;;;;;;68.77;40.90;;;;;;;;;;5056094;28;20233;-74
2022/12/06 10:50:30;;;;;;;74.23;40.27;;;;;;;;;;5054246;28;20213;-75
2022/12/06 10:52:59;;;;;;;63.33;37.67;;;;;;;;;;5067211;28;20188;-75
2022/12/06 10:55:35;;;;;;;70.37;43.47;;;;;;;;;;5070933;28;20181;-75
2022/12/06 10:58:07;;;;;;;76.23;43.10;;;;;;;;;;5067980;28;20177;-74
2022/12/06 11:00:46;;;;;;;71.57;43.00;;;;;;;;;;5055801;28;20193;-75
2022/12/06 11:03:18;;;;;;;73.17;42.77;;;;;;;;;;5071767;28;20210;-74
2022/12/06 11:05:47;;;;;;;74.73;40.80;;;;;;;;;;5053115;28;20182;-75
2022/12/06 11:08:32;;;;;;;73.63;40.93;;;;;;;;;;5070620;28;20181;-74
2022/12/06 11:10:59;;;;;;;65.03;37.83;;;;;;;;;;5058633;28;20209;-74
2022/12/06 11:13:31;;;;;;;67.63;39.33;;;;;;;;;;5058404;28;20174;-74
2022/12/06 11:15:57;;;;;;;63.50;37.73;;;;;;;;;;5055481;28;20169;-75
2022/12/06 11:18:27;;;;;;;66.23;40.37;;;;;;;;;;5054785;28;20204;-75
2022/12/06 11:20:55;;;;;;;62.83;36.97;;;;;;;;;;5072171;28;20263;-75
2022/12/06 11:23:44;;;;;;;69.17;40.20;;;;;;;;;;5057548;28;20174;-75
2022/12/06 11:26:10;;;;;;;69.17;40.77;;;;;;;;;;5071619;28;20178;-74
2022/12/06 11:28:48;;;;;;;73.20;40.93;;;;;;;;;;5056953;28;20601;-75
2022/12/06 11:31:14;;;;;;;67.73;39.70;;;;;;;;;;5055803;28;20602;-74
2022/12/06 11:33:40;;;;;;;71.17;41.00;;;;;;;;;;5058470;28;20219;-75
2022/12/06 11:36:06;;;;;;;71.10;40.50;;;;;;;;;;5069533;28;20242;-74
2022/12/06 11:38:34;;;;;;;66.67;39.77;;;;;;;;;;5059970;28;20532;-75
2022/12/06 11:41:01;;;;;;;66.37;38.97;;;;;;;;;;5057141;28;20190;-74
2022/12/06 11:43:31;;;;;;;78.57;41.67;;;;;;;;;;5055961;28;20193;-74
2022/12/06 11:45:57;;;;;;;77.30;45.40;;;;;;;;;;5055426;28;20276;-75
2022/12/06 11:48:25;;;;;;;89.40;45.53;;;;;;;;;;5052518;28;20656;-75
2022/12/06 11:50:52;;;;;;;67.20;39.73;;;;;;;;;;5081633;28;20653;-76
2022/12/06 11:53:36;;;;;;;74.67;40.07;;;;;;;;;;5057199;28;20652;-74
2022/12/06 11:56:05;;;;;;;68.47;37.07;;;;;;;;;;5057424;28;20181;-75
2022/12/06 11:58:37;;;;;;;76.63;40.00;;;;;;;;;;5056408;28;20190;-75
2022/12/06 12:01:06;;;;;;;59.10;37.40;;;;;;;;;;5060237;28;20189;-75
2022/12/06 12:03:34;;;;;;;68.37;39.63;;;;;;;;;;5054183;28;20177;-74
2022/12/06 12:06:16;;;;;;;74.80;40.97;;;;;;;;;;5084369;28;20172;-75
2022/12/06 12:08:57;;;;;;;69.60;38.47;;;;;;;;;;5065016;28;20557;-75
2022/12/06 12:11:25;;;;;;;73.50;38.80;;;;;;;;;;5065358;28;20319;-74
2022/12/06 12:14:01;;;;;;;64.20;37.00;;;;;;;;;;5061786;28;20983;-74
2022/12/06 12:16:29;;;;;;;77.37;40.10;;;;;;;;;;5060880;28;20276;-76
2022/12/06 12:18:57;;;;;;;72.37;37.43;;;;;;;;;;5067279;28;20265;-75
2022/12/06 12:21:33;;;;;;;77.77;39.77;;;;;;;;;;5069697;28;20277;-74
2022/12/06 12:23:59;;;;;;;79.27;39.43;;;;;;;;;;5068943;28;20189;-75
2022/12/06 12:26:34;;;;;;;73.27;38.70;;;;;;;;;;5057319;28;20181;-75
2022/12/06 12:29:05;;;;;;;73.13;38.00;;;;;;;;;;5054489;28;20634;-75
2022/12/06 12:31:31;;;;;;;72.93;38.20;;;;;;;;;;5059828;28;20207;-75
2022/12/06 12:34:17;;;;;;;70.40;40.13;;;;;;;;;;5057396;28;20259;-75
2022/12/06 12:36:51;;;;;;;67.30;37.50;;;;;;;;;;5066795;28;20185;-74
2022/12/06 12:39:23;;;;;;;63.53;37.07;;;;;;;;;;5060387;28;20600;-75
2022/12/06 12:41:49;;;;;;;64.00;38.97;;;;;;;;;;5063188;28;20190;-75
2022/12/06 12:44:17;;;;;;;66.20;38.77;;;;;;;;;;5054862;28;20232;-75
2022/12/06 12:46:44;;;;;;;67.70;40.27;;;;;;;;;;5056888;28;20181;-75
2022/12/06 12:49:30;;;;;;;64.70;37.97;;;;;;;;;;5066258;28;20228;-74
2022/12/06 12:51:57;;;;;;;75.47;39.00;;;;;;;;;;5066125;28;20244;-75
2022/12/06 12:54:25;;;;;;;61.23;37.03;;;;;;;;;;5067890;28;20261;-75
2022/12/06 12:56:52;;;;;;;70.40;38.27;;;;;;;;;;5067343;28;20268;-74
2022/12/06 12:59:20;;;;;;;66.53;38.33;;;;;;;;;;5057532;28;20176;-75
2022/12/06 13:01:46;;;;;;;78.73;40.17;;;;;;;;;;5064998;28;20204;-76
2022/12/06 13:04:15;;;;;;;69.23;40.57;;;;;;;;;;5067717;28;20212;-76
2022/12/06 13:06:41;;;;;;;65.27;38.53;;;;;;;;;;5067559;28;20177;-75
2022/12/06 13:09:13;;;;;;;68.50;39.37;;;;;;;;;;5066734;28;20230;-75
2022/12/06 13:11:42;;;;;;;74.33;39.33;;;;;;;;;;5055669;28;20735;-76
2022/12/06 13:14:15;;;;;;;71.03;38.23;;;;;;;;;;5057004;28;20696;-76
2022/12/06 13:16:41;;;;;;;77.93;41.47;;;;;;;;;;5052868;28;20185;-75
2022/12/06 13:19:13;;;;;;;80.83;41.53;;;;;;;;;;5055785;28;20181;-76
2022/12/06 13:21:41;;;;;;;78.70;41.13;;;;;;;;;;5052504;28;20192;-76
2022/12/06 13:24:10;;;;;;;102.37;45.40;;;;;;;;;;5050773;28;20626;-76
2022/12/06 13:26:39;;;;;;;89.77;43.90;;;;;;;;;;5060971;28;20272;-76
2022/12/06 13:29:22;;;;;;;81.97;43.63;;;;;;;;;;5062964;28;20317;-76
2022/12/06 13:31:49;;;;;;;94.40;43.40;;;;;;;;;;5067670;28;20213;-76
2022/12/06 13:34:15;;;;;;;88.77;43.90;;;;;;;;;;5066314;28;20734;-75
2022/12/06 13:36:42;;;;;;;92.10;44.43;;;;;;;;;;5067697;28;20197;-76
2022/12/06 13:39:26;;;;;;;101.10;47.77;;;;;;;;;;5061990;28;20625;-76
2022/12/06 13:44:42;;;;;;;110.17;48.33;;;;;;;;;;5063031;28;20304;-76
2022/12/06 13:47:26;;;;;;;99.93;49.23;;;;;;;;;;5056879;28;20210;-75
2022/12/06 13:49:56;;;;;;;118.33;50.10;;;;;;;;;;5059003;28;20264;-76
2022/12/06 13:52:41;;;;;;;104.93;48.20;;;;;;;;;;5060246;28;20193;-77
2022/12/06 13:55:27;;;;;;;111.27;49.57;;;;;;;;;;5065391;28;20178;-76
2022/12/06 13:57:59;;;;;;;105.50;48.77;;;;;;;;;;5054214;28;20178;-76
2022/12/06 14:00:31;;;;;;;158.13;55.77;;;;;;;;;;5055223;28;20227;-77
2022/12/06 14:02:57;;;;;;;122.20;51.57;;;;;;;;;;5069914;28;20207;-77
2022/12/06 14:05:42;;;;;;;125.80;52.63;;;;;;;;;;5056054;28;20654;-76
2022/12/06 14:08:14;;;;;;;127.00;57.20;;;;;;;;;;5067314;28;20182;-76
2022/12/06 14:10:40;;;;;;;129.60;54.13;;;;;;;;;;5061098;28;20262;-76
2022/12/06 14:13:06;;;;;;;118.37;51.10;;;;;;;;;;5065620;28;20644;-76
2022/12/06 14:15:37;;;;;;;110.47;52.03;;;;;;;;;;5058511;28;20191;-76
2022/12/06 14:18:03;;;;;;;129.00;53.73;;;;;;;;;;5070958;28;20188;-76
2022/12/06 14:20:30;;;;;;;101.93;51.83;;;;;;;;;;5059435;28;20189;-76
2022/12/06 14:22:56;;;;;;;127.77;54.57;;;;;;;;;;5064786;28;20232;-76
2022/12/06 14:25:24;;;;;;;115.40;54.77;;;;;;;;;;5067615;28;20173;-76
2022/12/06 14:27:51;;;;;;;105.00;52.60;;;;;;;;;;5059099;28;20230;-76
2022/12/06 14:30:17;;;;;;;103.07;53.67;;;;;;;;;;5057062;28;20278;-76
2022/12/06 14:32:48;;;;;;;102.23;50.77;;;;;;;;;;5070425;28;20204;-76
2022/12/06 14:35:13;;;;;;;117.50;53.43;;;;;;;;;;5055861;28;20545;-75
2022/12/06 14:37:45;;;;;;;113.67;55.43;;;;;;;;;;5058964;28;20190;-76
2022/12/06 14:40:21;;;;;;;112.63;54.13;;;;;;;;;;5070928;28;20633;-76
2022/12/06 14:43:02;;;;;;;122.83;54.57;;;;;;;;;;5060482;28;20646;-76
2022/12/06 14:45:30;;;;;;;103.97;51.67;;;;;;;;;;5065149;28;20243;-76
2022/12/06 14:47:57;;;;;;;124.67;55.83;;;;;;;;;;5068609;28;20205;-76
2022/12/06 14:50:23;;;;;;;108.60;52.77;;;;;;;;;;5069348;28;21301;-76
2022/12/06 14:52:55;;;;;;;131.00;56.87;;;;;;;;;;5062002;28;20188;-77
2022/12/06 14:55:21;;;;;;;113.73;54.30;;;;;;;;;;5063317;28;20189;-76
2022/12/06 14:57:48;;;;;;;145.97;59.50;;;;;;;;;;5058812;28;20611;-75
2022/12/06 15:00:17;;;;;;;114.23;56.67;;;;;;;;;;5065625;28;20178;-76
2022/12/06 15:03:02;;;;;;;118.13;56.13;;;;;;;;;;5069212;28;20560;-76
2022/12/06 15:05:36;;;;;;;176.07;61.90;;;;;;;;;;5077737;28;20168;-76
2022/12/06 15:08:17;;;;;;;142.43;60.53;;;;;;;;;;5068111;28;20242;-73